createdAt,value
2018-11-13T00:00:44.899Z,5.20
2018-11-13T00:03:13.364Z,5.30
2018-11-13T00:05:41.915Z,5.20
2018-11-13T00:08:10.483Z,5.10
2018-11-13T00:10:39.072Z,5.10
2018-11-13T00:13:07.564Z,5.00
2018-11-13T00:15:36.132Z,5.10
2018-11-13T00:18:04.987Z,5.00
2018-11-13T00:20:33.540Z,5.00
2018-11-13T00:23:02.089Z,5.00
2018-11-13T00:25:30.611Z,5.00
2018-11-13T00:27:59.100Z,5.00
2018-11-13T00:30:27.671Z,5.00
2018-11-13T00:32:56.195Z,5.00
2018-11-13T00:35:24.735Z,5.00
2018-11-13T00:37:53.326Z,4.90
2018-11-13T00:40:21.869Z,4.90
2018-11-13T00:42:50.767Z,4.80
2018-11-13T00:45:19.436Z,4.80
2018-11-13T00:47:47.948Z,4.80
2018-11-13T00:50:17.615Z,4.70
2018-11-13T00:52:46.607Z,4.70
2018-11-13T00:55:15.350Z,4.60
2018-11-13T00:57:44.012Z,4.60
2018-11-13T01:00:16.512Z,4.60
2018-11-13T01:02:45.275Z,4.50
2018-11-13T01:05:15.113Z,4.50
2018-11-13T01:07:44.724Z,4.50
2018-11-13T01:10:14.184Z,4.50
2018-11-13T01:12:43.710Z,4.50
2018-11-13T01:15:13.911Z,4.40
2018-11-13T01:17:43.657Z,4.40
2018-11-13T01:20:12.424Z,4.40
2018-11-13T01:22:40.980Z,4.40
2018-11-13T01:25:10.700Z,4.40
2018-11-13T01:27:39.212Z,4.40
2018-11-13T01:30:09.328Z,4.30
2018-11-13T01:32:39.212Z,4.30
2018-11-13T01:35:09.367Z,4.30
2018-11-13T01:37:37.852Z,4.30
2018-11-13T01:40:10.723Z,4.20
2018-11-13T01:42:39.497Z,4.30
2018-11-13T01:45:09.744Z,4.50
2018-11-13T01:47:38.305Z,4.50
2018-11-13T01:50:07.101Z,4.40
2018-11-13T01:52:35.997Z,4.40
2018-11-13T01:55:05.209Z,4.60
2018-11-13T01:57:33.756Z,4.50
2018-11-13T02:00:02.276Z,4.40
2018-11-13T02:02:30.777Z,4.40
2018-11-13T02:04:59.324Z,4.50
2018-11-13T02:07:27.878Z,4.40
2018-11-13T02:09:56.351Z,4.30
2018-11-13T02:12:24.915Z,4.30
2018-11-13T02:14:53.505Z,4.20
2018-11-13T02:17:22.021Z,4.10
2018-11-13T02:19:50.541Z,4.00
2018-11-13T02:22:19.065Z,4.00
2018-11-13T02:24:47.616Z,4.00
2018-11-13T02:27:16.128Z,3.90
2018-11-13T02:29:44.641Z,3.90
2018-11-13T02:32:13.235Z,3.90
2018-11-13T02:34:41.740Z,3.90
2018-11-13T02:37:10.232Z,3.80
2018-11-13T02:39:38.751Z,3.80
2018-11-13T02:42:07.373Z,3.70
2018-11-13T02:44:35.872Z,3.70
2018-11-13T02:47:04.500Z,3.60
2018-11-13T02:49:33.022Z,3.60
2018-11-13T02:52:01.498Z,3.50
2018-11-13T02:54:30.048Z,3.50
2018-11-13T02:56:58.567Z,3.50
2018-11-13T02:59:27.091Z,3.50
2018-11-13T03:01:55.609Z,3.50
2018-11-13T03:04:24.103Z,3.50
2018-11-13T03:06:52.627Z,3.50
2018-11-13T03:09:21.203Z,3.50
2018-11-13T03:11:49.764Z,3.50
2018-11-13T03:14:18.274Z,3.40
2018-11-13T03:16:46.761Z,3.50
2018-11-13T03:19:15.288Z,3.50
2018-11-13T03:21:43.870Z,3.50
2018-11-13T03:24:12.389Z,3.50
2018-11-13T03:26:40.936Z,3.40
2018-11-13T03:29:09.492Z,3.30
2018-11-13T03:31:38.112Z,3.30
2018-11-13T03:34:06.821Z,3.30
2018-11-13T03:36:35.399Z,3.30
2018-11-13T03:39:04.912Z,3.50
2018-11-13T03:41:33.422Z,3.50
2018-11-13T03:44:02.048Z,3.50
2018-11-13T03:46:30.618Z,3.40
2018-11-13T03:48:59.124Z,3.50
2018-11-13T03:51:27.635Z,3.50
2018-11-13T03:53:56.199Z,3.60
2018-11-13T03:56:24.740Z,3.50
2018-11-13T03:58:53.261Z,3.40
2018-11-13T04:01:21.813Z,3.40
2018-11-13T04:03:51.069Z,3.50
2018-11-13T04:06:19.712Z,3.50
2018-11-13T04:08:48.290Z,3.40
2018-11-13T04:11:16.851Z,3.50
2018-11-13T04:13:45.419Z,3.50
2018-11-13T04:16:13.915Z,3.50
2018-11-13T04:18:42.431Z,3.60
2018-11-13T04:21:10.981Z,3.60
2018-11-13T04:23:39.516Z,3.60
2018-11-13T04:26:07.996Z,3.60
2018-11-13T04:28:36.500Z,3.70
2018-11-13T04:31:05.181Z,3.80
2018-11-13T04:33:33.756Z,3.70
2018-11-13T04:36:02.312Z,3.70
2018-11-13T04:38:30.828Z,3.60
2018-11-13T04:40:59.337Z,3.50
2018-11-13T04:43:27.908Z,3.40
2018-11-13T04:45:56.457Z,3.40
2018-11-13T04:48:24.986Z,3.30
2018-11-13T04:50:53.533Z,3.30
2018-11-13T04:53:22.074Z,3.30
2018-11-13T04:55:50.574Z,3.50
2018-11-13T04:58:19.096Z,3.60
2018-11-13T05:00:47.624Z,3.60
2018-11-13T05:03:16.137Z,3.60
2018-11-13T05:05:44.675Z,3.60
2018-11-13T05:08:13.188Z,3.70
2018-11-13T05:10:41.706Z,3.80
2018-11-13T05:13:10.276Z,3.90
2018-11-13T05:15:38.791Z,3.90
2018-11-13T05:18:07.343Z,3.90
2018-11-13T05:20:35.876Z,3.90
2018-11-13T05:23:04.641Z,3.90
2018-11-13T05:25:33.184Z,4.00
2018-11-13T05:28:01.713Z,4.00
2018-11-13T05:30:30.327Z,4.10
2018-11-13T05:32:58.820Z,4.00
2018-11-13T05:35:27.349Z,4.00
2018-11-13T05:37:55.848Z,3.90
2018-11-13T05:40:25.212Z,4.00
2018-11-13T05:42:53.797Z,4.10
2018-11-13T05:45:24.520Z,4.10
2018-11-13T05:47:53.064Z,4.10
2018-11-13T05:50:21.677Z,4.10
2018-11-13T05:52:51.555Z,4.00
2018-11-13T05:55:20.176Z,4.00
2018-11-13T05:57:49.071Z,4.00
2018-11-13T06:00:19.475Z,4.00
2018-11-13T06:02:48.014Z,3.90
2018-11-13T06:05:16.583Z,4.00
2018-11-13T06:07:45.152Z,4.10
2018-11-13T06:10:14.110Z,4.00
2018-11-13T06:12:42.781Z,3.90
2018-11-13T06:15:11.687Z,3.90
2018-11-13T06:17:40.197Z,3.80
2018-11-13T06:20:10.051Z,3.70
2018-11-13T06:22:38.759Z,3.60
2018-11-13T06:25:09.115Z,3.60
2018-11-13T06:27:37.684Z,3.60
2018-11-13T06:30:10.940Z,3.60
2018-11-13T06:32:39.458Z,3.50
2018-11-13T06:35:07.991Z,3.50
2018-11-13T06:37:36.582Z,3.50
2018-11-13T06:40:06.135Z,3.50
2018-11-13T06:42:34.710Z,3.60
2018-11-13T06:45:03.292Z,3.60
2018-11-13T06:47:31.808Z,3.70
2018-11-13T06:50:00.319Z,3.80
2018-11-13T06:52:28.871Z,3.90
2018-11-13T06:54:59.837Z,4.00
2018-11-13T06:57:28.592Z,4.10
2018-11-13T06:59:57.107Z,4.20
2018-11-13T07:02:25.646Z,4.20
2018-11-13T07:04:54.206Z,4.20
2018-11-13T07:07:22.688Z,4.30
2018-11-13T07:09:51.210Z,4.40
2018-11-13T07:12:19.780Z,4.40
2018-11-13T07:14:48.429Z,4.50
2018-11-13T07:17:17.188Z,4.60
2018-11-13T07:19:45.739Z,4.70
2018-11-13T07:22:14.301Z,4.90
2018-11-13T07:24:42.825Z,5.10
2018-11-13T07:27:11.329Z,5.40
2018-11-13T07:29:39.832Z,5.90
2018-11-13T07:32:08.365Z,6.60
2018-11-13T07:34:36.875Z,7.00
2018-11-13T07:37:05.571Z,7.00
2018-11-13T07:39:34.076Z,6.80
2018-11-13T07:42:02.624Z,7.00
2018-11-13T07:44:31.205Z,7.40
2018-11-13T07:47:00.030Z,8.10
2018-11-13T07:49:28.867Z,9.10
2018-11-13T07:52:00.344Z,10.40
2018-11-13T07:54:28.937Z,11.50
2018-11-13T07:56:57.553Z,11.50
2018-11-13T07:59:26.096Z,11.30
2018-11-13T08:01:54.614Z,10.90
2018-11-13T08:04:23.134Z,10.40
2018-11-13T08:06:51.768Z,10.40
2018-11-13T08:09:20.238Z,11.10
2018-11-13T08:11:48.763Z,12.50
2018-11-13T08:14:17.288Z,14.20
2018-11-13T08:16:45.861Z,15.00
2018-11-13T08:19:14.396Z,15.50
2018-11-13T08:21:42.928Z,15.90
2018-11-13T08:24:11.495Z,16.20
2018-11-13T08:26:40.084Z,17.10
2018-11-13T08:29:08.711Z,17.80
2018-11-13T08:31:37.244Z,18.20
2018-11-13T08:34:06.216Z,17.50
2018-11-13T08:36:34.734Z,16.30
2018-11-13T08:39:04.851Z,14.90
2018-11-13T08:41:33.374Z,13.90
2018-11-13T08:44:01.931Z,13.20
2018-11-13T08:46:30.455Z,12.70
2018-11-13T08:48:58.955Z,12.30
2018-11-13T08:51:27.494Z,12.00
2018-11-13T08:53:56.012Z,11.70
2018-11-13T08:56:24.671Z,11.60
2018-11-13T08:58:53.286Z,11.40
2018-11-13T09:01:21.780Z,11.50
2018-11-13T09:03:50.364Z,11.50
2018-11-13T09:06:19.015Z,11.70
2018-11-13T09:08:47.528Z,11.70
2018-11-13T09:11:16.123Z,11.70
2018-11-13T09:13:44.599Z,11.70
2018-11-13T09:16:13.144Z,11.80
2018-11-13T09:18:41.675Z,12.00
2018-11-13T09:21:10.233Z,12.00
2018-11-13T09:23:38.793Z,12.10
2018-11-13T09:26:07.416Z,12.30
2018-11-13T09:28:35.963Z,12.80
2018-11-13T09:31:04.628Z,13.60
2018-11-13T09:33:33.192Z,14.30
2018-11-13T09:36:01.691Z,14.90
2018-11-13T09:38:30.248Z,15.40
2018-11-13T09:40:58.775Z,16.00
2018-11-13T09:43:27.288Z,16.50
2018-11-13T09:45:55.880Z,16.90
2018-11-13T09:48:24.343Z,17.40
2018-11-13T09:50:52.926Z,17.90
2018-11-13T09:53:21.508Z,18.40
2018-11-13T09:55:50.032Z,18.50
2018-11-13T09:58:18.571Z,18.10
2018-11-13T10:00:47.259Z,17.70
2018-11-13T10:03:16.444Z,17.70
2018-11-13T10:05:44.343Z,17.90
2018-11-13T10:08:12.823Z,18.20
2018-11-13T10:10:41.436Z,18.50
2018-11-13T10:13:09.965Z,18.70
2018-11-13T10:15:38.555Z,18.90
2018-11-13T10:18:07.266Z,19.20
2018-11-13T10:20:35.709Z,19.30
2018-11-13T10:23:04.556Z,19.40
2018-11-13T10:25:33.167Z,19.30
2018-11-13T10:28:01.739Z,19.10
2018-11-13T10:30:30.323Z,18.80
2018-11-13T10:32:58.890Z,18.40
2018-11-13T10:35:27.456Z,18.00
2018-11-13T10:37:55.999Z,17.70
2018-11-13T10:40:24.624Z,17.50
2018-11-13T10:42:53.580Z,17.30
2018-11-13T10:45:23.772Z,17.10
2018-11-13T10:47:52.317Z,16.90
2018-11-13T10:50:22.362Z,16.50
2018-11-13T10:52:50.819Z,16.00
2018-11-13T10:55:19.349Z,15.70
2018-11-13T10:57:47.900Z,15.50
2018-11-13T11:00:22.242Z,15.20
2018-11-13T11:02:53.722Z,14.90
2018-11-13T11:05:24.359Z,14.70
2018-11-13T11:07:53.083Z,14.60
2018-11-13T11:10:21.699Z,14.50
2018-11-13T11:12:50.304Z,14.30
2018-11-13T11:15:19.043Z,14.20
2018-11-13T11:17:47.524Z,14.30
2018-11-13T11:20:16.072Z,14.30
2018-11-13T11:22:44.696Z,14.20
2018-11-13T11:25:13.857Z,14.10
2018-11-13T11:27:42.350Z,14.00
2018-11-13T11:30:13.366Z,14.00
2018-11-13T11:32:41.968Z,13.90
2018-11-13T11:35:10.650Z,13.80
2018-11-13T11:37:39.995Z,13.70
2018-11-13T11:40:09.651Z,13.60
2018-11-13T11:42:38.507Z,13.50
2018-11-13T11:45:10.267Z,13.40
2018-11-13T11:47:38.781Z,13.30
2018-11-13T11:50:08.471Z,13.20
2018-11-13T11:52:37.119Z,13.10
2018-11-13T11:55:06.088Z,13.10
2018-11-13T11:57:34.659Z,13.00
2018-11-13T12:00:03.400Z,12.80
2018-11-13T12:02:31.942Z,12.80
2018-11-13T12:05:00.508Z,12.70
2018-11-13T12:07:29.086Z,12.60
2018-11-13T12:09:57.576Z,12.50
2018-11-13T12:12:26.299Z,12.40
2018-11-13T12:14:54.750Z,12.40
2018-11-13T12:17:23.296Z,12.30
2018-11-13T12:19:51.893Z,12.30
2018-11-13T12:22:20.429Z,12.30
2018-11-13T12:24:48.963Z,12.20
2018-11-13T12:27:17.450Z,12.20
2018-11-13T12:29:45.999Z,12.20
2018-11-13T12:32:14.560Z,12.20
2018-11-13T12:34:43.157Z,12.20
2018-11-13T12:37:11.656Z,12.00
2018-11-13T12:39:40.184Z,11.90
2018-11-13T12:42:08.761Z,11.90
2018-11-13T12:44:37.291Z,11.80
2018-11-13T12:47:05.855Z,11.70
2018-11-13T12:49:34.391Z,11.70
2018-11-13T12:52:08.388Z,11.70
2018-11-13T12:54:36.921Z,11.70
2018-11-13T12:57:05.632Z,11.60
2018-11-13T12:59:34.196Z,11.60
2018-11-13T13:02:04.808Z,11.60
2018-11-13T13:04:32.108Z,11.60
2018-11-13T13:07:00.671Z,11.60
2018-11-13T13:09:29.687Z,11.60
2018-11-13T13:11:58.265Z,11.70
2018-11-13T13:14:26.840Z,11.70
2018-11-13T13:16:55.395Z,11.70
2018-11-13T13:19:24.003Z,11.60
2018-11-13T13:21:52.514Z,11.60
2018-11-13T13:24:21.043Z,11.60
2018-11-13T13:26:49.587Z,11.50
2018-11-13T13:29:18.140Z,11.50
2018-11-13T13:31:46.721Z,11.50
2018-11-13T13:34:15.296Z,11.50
2018-11-13T13:36:43.883Z,11.50
2018-11-13T13:39:12.404Z,11.40
2018-11-13T13:41:40.976Z,11.40
2018-11-13T13:44:09.515Z,11.40
2018-11-13T13:46:38.109Z,11.40
2018-11-13T13:49:06.901Z,11.40
2018-11-13T13:51:35.486Z,11.40
2018-11-13T13:54:05.147Z,11.30
2018-11-13T13:56:33.602Z,11.30
2018-11-13T13:59:02.104Z,11.30
2018-11-13T14:01:30.688Z,11.30
2018-11-13T14:03:59.211Z,11.30
2018-11-13T14:06:27.816Z,11.30
2018-11-13T14:08:56.339Z,11.20
2018-11-13T14:11:24.887Z,11.20
2018-11-13T14:13:53.456Z,11.20
2018-11-13T14:16:22.018Z,11.10
2018-11-13T14:18:50.567Z,11.10
2018-11-13T14:21:19.114Z,11.10
2018-11-13T14:23:47.648Z,11.10
2018-11-13T14:26:16.248Z,11.10
2018-11-13T14:28:44.780Z,11.10
2018-11-13T14:31:13.383Z,11.10
2018-11-13T14:33:41.938Z,11.10
2018-11-13T14:36:10.550Z,11.10
2018-11-13T14:38:39.068Z,10.90
2018-11-13T14:41:07.640Z,10.90
2018-11-13T14:43:36.175Z,10.80
2018-11-13T14:46:04.717Z,10.80
2018-11-13T14:48:33.259Z,10.80
2018-11-13T14:51:01.805Z,10.80
2018-11-13T14:53:30.384Z,10.90
2018-11-13T14:55:58.901Z,10.80
2018-11-13T14:58:27.420Z,10.80
2018-11-13T15:00:55.989Z,10.80
2018-11-13T15:03:24.507Z,10.80
2018-11-13T15:05:53.113Z,10.90
2018-11-13T15:08:21.689Z,10.90
2018-11-13T15:10:51.458Z,10.90
2018-11-13T15:13:20.803Z,10.90
2018-11-13T15:15:49.397Z,10.90
2018-11-13T15:18:17.954Z,10.90
2018-11-13T15:20:47.264Z,10.90
2018-11-13T15:23:16.131Z,10.90
2018-11-13T15:25:44.721Z,10.90
2018-11-13T15:28:13.491Z,10.90
2018-11-13T15:30:43.581Z,10.80
2018-11-13T15:33:15.560Z,10.70
2018-11-13T15:35:44.153Z,10.70
2018-11-13T15:38:12.695Z,10.70
2018-11-13T15:40:41.288Z,10.60
2018-11-13T15:43:09.860Z,10.60
2018-11-13T15:45:38.407Z,10.60
2018-11-13T15:48:08.557Z,10.60
2018-11-13T15:50:37.724Z,10.70
2018-11-13T15:53:06.851Z,10.60
2018-11-13T15:55:35.335Z,10.50
2018-11-13T15:58:03.951Z,10.40
2018-11-13T16:00:33.767Z,10.40
2018-11-13T16:03:05.817Z,10.30
2018-11-13T16:05:37.630Z,10.30
2018-11-13T16:08:07.039Z,10.20
2018-11-13T16:10:36.146Z,10.30
2018-11-13T16:13:05.844Z,10.30
2018-11-13T16:15:34.431Z,10.30
2018-11-13T16:18:05.389Z,10.30
2018-11-13T16:20:33.949Z,10.40
2018-11-13T16:23:02.474Z,10.40
2018-11-13T16:25:30.981Z,10.50
2018-11-13T16:27:59.524Z,10.40
2018-11-13T16:30:29.722Z,10.50
2018-11-13T16:32:58.121Z,10.50
2018-11-13T16:35:27.617Z,10.40
2018-11-13T16:37:57.274Z,10.40
2018-11-13T16:40:26.962Z,10.40
2018-11-13T16:42:55.488Z,10.40
2018-11-13T16:45:24.709Z,10.50
2018-11-13T16:47:53.638Z,10.50
2018-11-13T16:50:23.452Z,10.40
2018-11-13T16:52:52.068Z,10.30
2018-11-13T16:55:25.884Z,10.30
2018-11-13T16:57:56.661Z,10.30
2018-11-13T17:00:25.645Z,10.30
2018-11-13T17:02:54.404Z,10.30
2018-11-13T17:05:23.850Z,10.10
2018-11-13T17:07:59.064Z,10.00
2018-11-13T17:10:28.878Z,9.80
2018-11-13T17:12:57.935Z,9.80
2018-11-13T17:15:27.789Z,9.80
2018-11-13T17:17:57.532Z,9.80
2018-11-13T17:20:26.100Z,9.60
2018-11-13T17:22:54.648Z,9.50
2018-11-13T17:25:24.695Z,9.40
2018-11-13T17:27:54.085Z,9.30
2018-11-13T17:30:24.699Z,9.30
2018-11-13T17:32:54.004Z,9.20
2018-11-13T17:35:23.739Z,9.10
2018-11-13T17:37:53.033Z,9.10
2018-11-13T17:40:22.996Z,9.00
2018-11-13T17:42:52.755Z,8.90
2018-11-13T17:45:26.363Z,8.90
2018-11-13T17:47:54.931Z,8.90
2018-11-13T17:50:26.216Z,8.80
2018-11-13T17:52:54.745Z,8.80
2018-11-13T17:55:23.652Z,8.80
2018-11-13T17:57:53.566Z,8.80
2018-11-13T18:00:24.552Z,8.80
2018-11-13T18:02:53.244Z,8.80
2018-11-13T18:05:22.932Z,8.80
2018-11-13T18:07:52.051Z,8.80
2018-11-13T18:10:20.607Z,8.80
2018-11-13T18:12:49.172Z,8.80
2018-11-13T18:15:19.432Z,8.80
2018-11-13T18:17:48.348Z,8.80
2018-11-13T18:20:18.395Z,8.80
2018-11-13T18:22:47.271Z,8.70
2018-11-13T18:25:15.858Z,8.70
2018-11-13T18:27:52.526Z,8.70
2018-11-13T18:30:23.259Z,8.60
2018-11-13T18:32:51.982Z,8.70
2018-11-13T18:35:28.218Z,8.60
2018-11-13T18:37:57.724Z,8.60
2018-11-13T18:40:26.687Z,8.50
2018-11-13T18:42:56.451Z,8.40
2018-11-13T18:45:27.480Z,8.30
2018-11-13T18:47:56.028Z,8.30
2018-11-13T18:50:25.925Z,8.30
2018-11-13T18:52:54.467Z,8.20
2018-11-13T18:55:23.076Z,8.20
2018-11-13T18:57:51.642Z,8.20
2018-11-13T19:00:22.840Z,8.10
2018-11-13T19:02:51.351Z,8.10
2018-11-13T19:05:20.197Z,8.10
2018-11-13T19:07:49.019Z,8.20
2018-11-13T19:10:29.247Z,8.20
2018-11-13T19:12:58.608Z,8.20
2018-11-13T19:15:27.525Z,8.30
2018-11-13T19:17:56.159Z,8.20
2018-11-13T19:20:25.964Z,8.20
2018-11-13T19:22:54.532Z,8.20
2018-11-13T19:25:26.476Z,8.30
2018-11-13T19:27:55.800Z,8.30
2018-11-13T19:30:24.353Z,8.30
2018-11-13T19:32:52.930Z,8.20
2018-11-13T19:35:21.921Z,8.10
2018-11-13T19:37:50.369Z,8.10
2018-11-13T19:40:28.552Z,8.10
2018-11-13T19:42:58.175Z,8.10
2018-11-13T19:45:26.800Z,8.10
2018-11-13T19:47:55.388Z,8.10
2018-11-13T19:50:26.425Z,8.00
2018-11-13T19:52:55.017Z,7.90
2018-11-13T19:55:24.332Z,7.90
2018-11-13T19:57:52.964Z,7.90
2018-11-13T20:00:23.064Z,7.90
2018-11-13T20:02:52.520Z,7.90
2018-11-13T20:05:21.493Z,7.90
2018-11-13T20:07:50.036Z,7.90
2018-11-13T20:10:20.085Z,7.80
2018-11-13T20:12:49.244Z,7.80
2018-11-13T20:15:19.340Z,7.80
2018-11-13T20:17:47.981Z,7.80
2018-11-13T20:20:19.068Z,7.80
2018-11-13T20:22:48.420Z,7.80
2018-11-13T20:25:18.429Z,7.70
2018-11-13T20:27:46.993Z,7.70
2018-11-13T20:30:20.856Z,7.60
2018-11-13T20:32:49.434Z,7.60
2018-11-13T20:35:18.017Z,7.60
2018-11-13T20:37:47.580Z,7.60
2018-11-13T20:40:18.394Z,7.60
2018-11-13T20:42:48.035Z,7.60
2018-11-13T20:45:16.592Z,7.60
2018-11-13T20:47:45.172Z,7.60
2018-11-13T20:50:16.103Z,7.60
2018-11-13T20:52:44.765Z,7.50
2018-11-13T20:55:13.713Z,7.50
2018-11-13T20:57:42.318Z,7.40
2018-11-13T21:00:15.227Z,7.40
2018-11-13T21:02:44.101Z,7.30
2018-11-13T21:05:13.085Z,7.20
2018-11-13T21:07:41.888Z,7.10
2018-11-13T21:10:14.709Z,7.10
2018-11-13T21:15:14.576Z,7.10
2018-11-13T21:17:43.204Z,7.10
2018-11-13T21:20:13.796Z,7.00
2018-11-13T21:22:42.432Z,6.90
2018-11-13T21:25:12.500Z,6.80
2018-11-13T21:27:41.405Z,6.70
2018-11-13T21:30:12.067Z,6.60
2018-11-13T21:32:40.697Z,6.60
2018-11-13T21:35:10.025Z,6.50
2018-11-13T21:37:38.907Z,6.40
2018-11-13T21:40:08.035Z,6.40
2018-11-13T21:42:36.588Z,6.40
2018-11-13T21:45:05.937Z,6.40
2018-11-13T21:47:34.544Z,6.40
2018-11-13T21:50:03.220Z,6.30
2018-11-13T21:52:31.703Z,6.30
2018-11-13T21:55:00.267Z,6.20
2018-11-13T21:57:28.816Z,6.10
2018-11-13T21:59:57.340Z,6.10
2018-11-13T22:02:25.919Z,6.00
2018-11-13T22:04:54.435Z,6.00
2018-11-13T22:07:23.027Z,5.90
2018-11-13T22:09:51.573Z,5.80
2018-11-13T22:12:20.096Z,5.80
2018-11-13T22:14:48.603Z,5.80
2018-11-13T22:17:17.130Z,5.70
2018-11-13T22:19:45.903Z,5.70
2018-11-13T22:22:14.292Z,5.60
2018-11-13T22:24:42.822Z,5.50
2018-11-13T22:27:11.353Z,5.40
2018-11-13T22:29:39.857Z,5.30
2018-11-13T22:32:08.444Z,5.40
2018-11-13T22:34:36.908Z,5.40
2018-11-13T22:37:05.516Z,5.40
2018-11-13T22:39:34.022Z,5.40
2018-11-13T22:42:02.532Z,5.50
2018-11-13T22:44:31.071Z,5.50
2018-11-13T22:46:59.625Z,5.50
2018-11-13T22:49:28.160Z,5.40
2018-11-13T22:51:56.681Z,5.30
2018-11-13T22:54:25.220Z,5.30
2018-11-13T22:56:53.720Z,5.30
2018-11-13T22:59:22.299Z,5.30
2018-11-13T23:01:50.865Z,5.30
2018-11-13T23:04:19.360Z,5.30
2018-11-13T23:06:47.903Z,5.40
2018-11-13T23:09:16.446Z,5.40
2018-11-13T23:11:44.967Z,5.50
2018-11-13T23:14:13.489Z,5.50
2018-11-13T23:16:42.056Z,5.60
2018-11-13T23:19:10.609Z,5.50
2018-11-13T23:21:39.140Z,5.50
2018-11-13T23:24:07.639Z,5.60
2018-11-13T23:26:36.256Z,5.60
2018-11-13T23:29:05.193Z,5.60
2018-11-13T23:31:33.783Z,5.70
2018-11-13T23:34:02.296Z,5.60
2018-11-13T23:36:30.831Z,5.70
2018-11-13T23:38:59.368Z,5.70
2018-11-13T23:41:27.884Z,5.70
2018-11-13T23:43:56.489Z,5.70
2018-11-13T23:46:24.995Z,5.60
2018-11-13T23:48:53.517Z,5.70
2018-11-13T23:51:22.038Z,5.60
2018-11-13T23:53:50.618Z,5.60
2018-11-13T23:56:19.069Z,5.50
2018-11-13T23:58:47.588Z,5.50
